createdAt,value
2023-03-01T00:04:01.732Z,101651.53
2023-03-01T00:09:03.702Z,101659.19
2023-03-01T00:14:05.403Z,101656.72
2023-03-01T00:19:09.070Z,101660.28
2023-03-01T00:24:11.565Z,101659.50
2023-03-01T00:29:13.387Z,101664.97
2023-03-01T00:34:14.919Z,101663.97
2023-03-01T00:39:16.402Z,101657.34
2023-03-01T00:44:18.089Z,101652.91
2023-03-01T00:49:19.665Z,101644.22
2023-03-01T00:54:21.212Z,101644.84
2023-03-01T00:59:22.678Z,101644.84
2023-03-01T01:04:24.389Z,101636.25
2023-03-01T01:09:25.816Z,101629.72
2023-03-01T01:14:27.318Z,101624.22
2023-03-01T01:19:29.038Z,101614.50
2023-03-01T01:24:30.970Z,101615.59
2023-03-01T01:29:32.545Z,101615.72
2023-03-01T01:34:34.215Z,101608.13
2023-03-01T01:39:36.306Z,101611.13
2023-03-01T01:44:37.796Z,101606.78
2023-03-01T01:49:42.785Z,101595.22
2023-03-01T01:54:53.726Z,101579.94
2023-03-01T01:59:59.692Z,101582.19
2023-03-01T02:05:10.218Z,101585.06
2023-03-01T02:10:11.729Z,101592.50
2023-03-01T02:15:13.260Z,101582.59
2023-03-01T02:20:33.043Z,101586.03
2023-03-01T02:25:36.865Z,101586.53
2023-03-01T02:30:38.351Z,101579.94
2023-03-01T02:35:39.917Z,101582.63
2023-03-01T02:40:41.531Z,101568.53
2023-03-01T02:45:50.112Z,101584.72
2023-03-01T02:51:03.432Z,101578.72
2023-03-01T02:56:04.917Z,101566.91
2023-03-01T03:01:06.421Z,101557.13
2023-03-01T03:06:07.834Z,101535.53
2023-03-01T03:11:09.195Z,101517.84
2023-03-01T03:16:10.720Z,101524.63
2023-03-01T03:21:12.634Z,101515.38
2023-03-01T03:26:13.936Z,101519.06
2023-03-01T03:31:15.954Z,101515.72
2023-03-01T03:36:18.256Z,101520.47
2023-03-01T03:41:19.574Z,101514.59
2023-03-01T03:46:21.032Z,101511.59
2023-03-01T03:51:22.482Z,101504.06
2023-03-01T03:56:23.951Z,101493.03
2023-03-01T04:01:25.384Z,101481.97
2023-03-01T04:06:26.917Z,101472.81
2023-03-01T04:11:28.242Z,101475.09
2023-03-01T04:16:30.160Z,101480.13
2023-03-01T04:21:31.862Z,101479.00
2023-03-01T04:26:33.531Z,101477.22
2023-03-01T04:31:34.949Z,101486.47
2023-03-01T04:36:37.017Z,101477.59
2023-03-01T04:41:39.330Z,101478.78
2023-03-01T04:46:40.813Z,101482.50
2023-03-01T04:51:42.297Z,101485.88
2023-03-01T04:56:43.797Z,101491.03
2023-03-01T05:01:45.117Z,101500.91
2023-03-01T05:06:46.479Z,101501.28
2023-03-01T05:11:47.889Z,101493.59
2023-03-01T05:16:49.322Z,101491.09
2023-03-01T05:21:50.774Z,101488.50
2023-03-01T05:26:52.124Z,101495.84
2023-03-01T05:31:54.102Z,101487.25
2023-03-01T05:36:56.274Z,101485.22
2023-03-01T05:41:58.861Z,101476.66
2023-03-01T05:47:00.358Z,101478.66
2023-03-01T05:52:01.947Z,101480.31
2023-03-01T05:57:03.307Z,101481.97
2023-03-01T06:02:04.658Z,101488.06
2023-03-01T06:07:06.260Z,101478.91
2023-03-01T06:12:07.681Z,101478.13
2023-03-01T06:17:09.035Z,101481.28
2023-03-01T06:22:10.365Z,101491.16
2023-03-01T06:27:11.937Z,101483.31
2023-03-01T06:32:13.319Z,101479.47
2023-03-01T06:37:14.800Z,101471.78
2023-03-01T06:42:16.133Z,101474.63
2023-03-01T06:47:17.449Z,101463.81
2023-03-01T06:52:18.821Z,101466.72
2023-03-01T06:57:20.231Z,101463.78
2023-03-01T07:02:21.678Z,101462.13
2023-03-01T07:07:23.176Z,101471.09
2023-03-01T07:12:24.593Z,101467.75
2023-03-01T07:17:25.949Z,101468.31
2023-03-01T07:22:27.390Z,101471.88
2023-03-01T07:27:28.761Z,101468.59
2023-03-01T07:32:30.220Z,101458.66
2023-03-01T07:37:31.748Z,101462.47
2023-03-01T07:42:33.188Z,101454.31
2023-03-01T07:47:34.768Z,101449.19
2023-03-01T07:52:36.239Z,101453.44
2023-03-01T07:57:37.707Z,101452.78
2023-03-01T08:02:39.150Z,101435.88
2023-03-01T08:07:40.619Z,101433.34
2023-03-01T08:12:41.948Z,101436.22
2023-03-01T08:17:43.292Z,101429.97
2023-03-01T08:22:44.697Z,101430.44
2023-03-01T08:27:46.089Z,101434.59
2023-03-01T08:32:47.649Z,101433.44
2023-03-01T08:37:49.097Z,101434.84
2023-03-01T08:42:50.504Z,101434.22
2023-03-01T08:47:53.398Z,101421.44
2023-03-01T08:52:54.758Z,101410.13
2023-03-01T08:57:56.432Z,101403.69
2023-03-01T09:02:57.822Z,101398.13
2023-03-01T09:07:59.274Z,101392.09
2023-03-01T09:13:00.631Z,101385.03
2023-03-01T09:18:01.991Z,101380.69
2023-03-01T09:23:03.570Z,101366.19
2023-03-01T09:28:05.008Z,101355.41
2023-03-01T09:33:06.397Z,101353.13
2023-03-01T09:38:07.802Z,101355.56
2023-03-01T09:43:16.481Z,101357.84
2023-03-01T09:48:19.747Z,101356.72
2023-03-01T09:53:23.071Z,101362.28
2023-03-01T09:58:48.768Z,101356.00
2023-03-01T10:04:01.156Z,101358.28
2023-03-01T10:09:05.445Z,101356.09
2023-03-01T10:14:16.397Z,101348.84
2023-03-01T10:19:26.619Z,101343.34
2023-03-01T10:24:30.067Z,101329.28
2023-03-01T10:29:36.230Z,101322.09
2023-03-01T10:34:37.767Z,101314.75
2023-03-01T10:39:54.978Z,101313.06
2023-03-01T10:44:56.538Z,101298.56
2023-03-01T10:50:02.216Z,101307.91
2023-03-01T10:55:22.341Z,101307.53
2023-03-01T11:00:27.113Z,101289.31
2023-03-01T11:05:28.944Z,101281.59
2023-03-01T11:10:31.695Z,101275.88
2023-03-01T11:15:33.085Z,101258.59
2023-03-01T11:20:36.539Z,101257.78
2023-03-01T11:25:38.886Z,101250.81
2023-03-01T11:31:06.799Z,101257.78
2023-03-01T11:36:31.943Z,101244.88
2023-03-01T11:41:35.299Z,101240.81
2023-03-01T11:46:44.150Z,101239.63
2023-03-01T11:51:54.880Z,101238.31
2023-03-01T11:57:11.613Z,101235.25
2023-03-01T12:02:22.996Z,101218.13
2023-03-01T12:07:33.652Z,101221.13
2023-03-01T12:12:47.120Z,101219.91
2023-03-01T12:17:57.700Z,101204.28
2023-03-01T12:23:20.680Z,101194.19
2023-03-01T12:28:32.054Z,101173.06
2023-03-01T12:33:33.437Z,101165.03
2023-03-01T12:38:49.656Z,101151.19
2023-03-01T12:44:09.726Z,101146.97
2023-03-01T12:49:11.308Z,101143.50
2023-03-01T12:54:16.110Z,101137.31
2023-03-01T12:59:42.422Z,101120.31
2023-03-01T13:05:02.552Z,101114.97
2023-03-01T13:10:33.156Z,101100.53
2023-03-01T13:15:35.785Z,101111.28
2023-03-01T13:20:43.056Z,101087.09
2023-03-01T13:25:59.603Z,101086.13
2023-03-01T13:31:05.033Z,101088.41
2023-03-01T13:36:07.746Z,101087.94
2023-03-01T13:41:09.269Z,101088.25
2023-03-01T13:46:12.764Z,101088.22
2023-03-01T13:51:14.257Z,101079.38
2023-03-01T13:56:36.952Z,101078.09
2023-03-01T14:01:38.444Z,101064.22
2023-03-01T14:06:39.968Z,101071.56
2023-03-01T14:11:53.756Z,101065.16
2023-03-01T14:17:13.697Z,101054.53
2023-03-01T14:22:25.639Z,101051.97
2023-03-01T14:27:28.014Z,101053.03
2023-03-01T14:32:31.236Z,101048.78
2023-03-01T14:37:34.015Z,101040.38
2023-03-01T14:42:36.901Z,101046.50
2023-03-01T14:47:38.344Z,101037.75
2023-03-01T14:52:41.260Z,101037.19
2023-03-01T14:57:47.780Z,101035.69
2023-03-01T15:02:50.894Z,101018.75
2023-03-01T15:07:53.193Z,101015.19
2023-03-01T15:12:54.558Z,101017.81
2023-03-01T15:17:57.647Z,101013.28
2023-03-01T15:23:00.373Z,101003.19
2023-03-01T15:28:02.683Z,100992.53
2023-03-01T15:33:22.920Z,101003.94
2023-03-01T15:38:26.834Z,100989.81
2023-03-01T15:43:38.478Z,100996.56
2023-03-01T15:48:39.903Z,100991.78
2023-03-01T15:53:52.778Z,100988.94
2023-03-01T15:58:58.590Z,100994.56
2023-03-01T16:04:00.036Z,101002.94
2023-03-01T16:09:01.503Z,101003.47
2023-03-01T16:14:03.292Z,101004.22
2023-03-01T16:19:04.718Z,101011.22
2023-03-01T16:24:06.396Z,101003.94
2023-03-01T16:29:07.697Z,101007.56
2023-03-01T16:34:09.075Z,101012.94
2023-03-01T16:39:10.377Z,101012.50
2023-03-01T16:44:11.770Z,101011.06
2023-03-01T16:49:13.123Z,101008.72
2023-03-01T16:54:14.606Z,101013.75
2023-03-01T16:59:15.946Z,101021.53
2023-03-01T17:04:18.711Z,101020.13
2023-03-01T17:09:20.752Z,101015.56
2023-03-01T17:14:22.261Z,101017.28
2023-03-01T17:19:23.641Z,101021.47
2023-03-01T17:24:25.027Z,101028.97
2023-03-01T17:29:26.369Z,101026.69
2023-03-01T17:34:27.929Z,101032.44
2023-03-01T17:39:31.439Z,101044.88
2023-03-01T17:44:33.659Z,101050.75
2023-03-01T17:49:35.130Z,101050.72
2023-03-01T17:54:36.558Z,101034.03
2023-03-01T17:59:38.158Z,101032.44
2023-03-01T18:04:39.511Z,101048.00
2023-03-01T18:09:40.881Z,101051.31
2023-03-01T18:14:42.210Z,101056.84
2023-03-01T18:19:43.614Z,101049.97
2023-03-01T18:24:45.000Z,101049.66
2023-03-01T18:29:46.436Z,101039.75
2023-03-01T18:34:47.824Z,101039.94
2023-03-01T18:39:52.404Z,101045.47
2023-03-01T18:44:53.894Z,101034.41
2023-03-01T18:49:55.359Z,101025.53
2023-03-01T18:54:57.486Z,101025.16
2023-03-01T18:59:58.829Z,101018.50
2023-03-01T19:05:00.271Z,101015.63
2023-03-01T19:10:01.673Z,101009.88
2023-03-01T19:15:03.641Z,100999.19
2023-03-01T19:20:05.363Z,101002.19
2023-03-01T19:25:07.124Z,101010.69
2023-03-01T19:30:08.861Z,101005.53
2023-03-01T19:35:10.240Z,101015.19
2023-03-01T19:40:11.845Z,101018.44
2023-03-01T19:45:14.626Z,101025.03
2023-03-01T19:50:16.224Z,101031.97
2023-03-01T19:55:17.544Z,101028.44
2023-03-01T20:00:19.055Z,101020.28
2023-03-01T20:05:20.489Z,101026.13
2023-03-01T20:10:21.925Z,101025.59
2023-03-01T20:15:23.259Z,101022.38
2023-03-01T20:20:24.598Z,101031.00
2023-03-01T20:25:25.953Z,101038.81
2023-03-01T20:30:27.323Z,101036.78
2023-03-01T20:35:28.716Z,101042.19
2023-03-01T20:40:30.697Z,101039.63
2023-03-01T20:45:32.449Z,101034.97
2023-03-01T20:50:35.922Z,101032.91
2023-03-01T20:55:37.996Z,101040.84
2023-03-01T21:00:39.440Z,101049.75
2023-03-01T21:05:40.780Z,101044.31
2023-03-01T21:10:42.240Z,101048.94
2023-03-01T21:15:51.457Z,101043.28
2023-03-01T21:20:52.854Z,101034.81
2023-03-01T21:26:04.842Z,101045.78
2023-03-01T21:31:08.988Z,101039.25
2023-03-01T21:36:11.018Z,101033.88
2023-03-01T21:41:13.857Z,101024.72
2023-03-01T21:46:16.547Z,101016.34
2023-03-01T21:51:19.199Z,101018.94
2023-03-01T21:56:22.055Z,101012.94
2023-03-01T22:01:24.713Z,101015.16
2023-03-01T22:06:27.684Z,101019.91
2023-03-01T22:11:29.095Z,101025.63
2023-03-01T22:16:31.849Z,101012.63
2023-03-01T22:21:33.755Z,101021.00
2023-03-01T22:26:39.785Z,101026.75
2023-03-01T22:31:41.919Z,101020.75
2023-03-01T22:36:43.382Z,101026.75
2023-03-01T22:41:45.727Z,101027.00
2023-03-01T22:46:47.244Z,101024.56
2023-03-01T22:51:49.056Z,101019.97
2023-03-01T22:56:50.487Z,101018.13
2023-03-01T23:01:52.713Z,101021.88
2023-03-01T23:06:54.450Z,101012.78
2023-03-01T23:11:56.699Z,101024.53
2023-03-01T23:16:58.338Z,101011.25
2023-03-01T23:22:00.045Z,101015.56
2023-03-01T23:27:01.854Z,101019.28
2023-03-01T23:32:03.447Z,101014.63
2023-03-01T23:37:05.084Z,101007.41
2023-03-01T23:42:06.779Z,101001.28
2023-03-01T23:47:08.125Z,100993.66
2023-03-01T23:52:12.312Z,100988.31
2023-03-01T23:57:13.864Z,100990.81
